createdAt,value
2023-03-05T00:01:26.503Z,94494.88
2023-03-05T00:03:55.584Z,94493.03
2023-03-05T00:06:25.469Z,94490.84
2023-03-05T00:08:53.443Z,94493.72
2023-03-05T00:11:21.016Z,94483.25
2023-03-05T00:13:47.626Z,94483.50
2023-03-05T00:16:17.326Z,94489.34
2023-03-05T00:18:44.826Z,94483.53
2023-03-05T00:21:26.464Z,94478.47
2023-03-05T00:23:53.843Z,94486.91
2023-03-05T00:26:22.715Z,94473.91
2023-03-05T00:28:51.870Z,94475.31
2023-03-05T00:31:21.108Z,94471.66
2023-03-05T00:33:55.815Z,94464.97
2023-03-05T00:36:24.397Z,94469.38
2023-03-05T00:38:51.012Z,94469.38
2023-03-05T00:41:17.578Z,94470.34
2023-03-05T00:43:44.125Z,94469.56
2023-03-05T00:46:11.730Z,94465.63
2023-03-05T00:48:38.387Z,94469.56
2023-03-05T00:51:05.227Z,94461.50
2023-03-05T00:53:32.209Z,94464.38
2023-03-05T00:55:59.250Z,94466.13
2023-03-05T00:58:25.983Z,94464.38
2023-03-05T01:00:52.564Z,94456.09
2023-03-05T01:03:19.486Z,94457.41
2023-03-05T01:05:46.211Z,94453.75
2023-03-05T01:08:12.808Z,94449.59
2023-03-05T01:10:39.341Z,94445.31
2023-03-05T01:13:05.948Z,94440.16
2023-03-05T01:15:32.497Z,94446.09
2023-03-05T01:17:59.041Z,94435.47
2023-03-05T01:20:25.590Z,94432.47
2023-03-05T01:22:52.868Z,94438.63
2023-03-05T01:25:19.875Z,94429.16
2023-03-05T01:27:46.408Z,94432.22
2023-03-05T01:30:14.548Z,94429.69
2023-03-05T01:32:41.313Z,94412.38
2023-03-05T01:35:08.768Z,94419.72
2023-03-05T01:37:35.294Z,94415.66
2023-03-05T01:40:01.931Z,94408.13
2023-03-05T01:42:28.498Z,94403.53
2023-03-05T01:45:10.141Z,94395.53
2023-03-05T01:47:37.145Z,94394.59
2023-03-05T01:50:07.495Z,94391.97
2023-03-05T01:52:39.351Z,94389.19
2023-03-05T01:55:11.837Z,94385.91
2023-03-05T01:57:45.748Z,94385.25
2023-03-05T02:00:46.749Z,94388.41
2023-03-05T02:03:14.629Z,94388.22
2023-03-05T02:05:44.415Z,94377.44
2023-03-05T02:08:20.913Z,94378.38
2023-03-05T02:10:56.358Z,94381.44
2023-03-05T02:13:25.801Z,94388.53
2023-03-05T02:15:54.572Z,94380.75
2023-03-05T02:18:21.953Z,94374.03
2023-03-05T02:20:52.068Z,94382.59
2023-03-05T02:23:21.152Z,94384.78
2023-03-05T02:25:47.924Z,94381.88
2023-03-05T02:28:26.181Z,94377.53
2023-03-05T02:30:52.760Z,94379.44
2023-03-05T02:33:20.549Z,94370.38
2023-03-05T02:35:48.285Z,94366.59
2023-03-05T02:38:18.078Z,94368.00
2023-03-05T02:40:44.702Z,94369.47
2023-03-05T02:43:12.971Z,94367.88
2023-03-05T02:45:39.977Z,94359.16
2023-03-05T02:48:06.846Z,94355.59
2023-03-05T02:50:34.292Z,94357.84
2023-03-05T02:53:01.097Z,94350.72
2023-03-05T02:55:28.496Z,94346.81
2023-03-05T02:57:55.156Z,94346.19
2023-03-05T03:00:22.572Z,94345.75
2023-03-05T03:02:49.892Z,94341.81
2023-03-05T03:05:16.457Z,94344.69
2023-03-05T03:07:43.023Z,94336.69
2023-03-05T03:10:10.728Z,94335.44
2023-03-05T03:12:41.725Z,94339.84
2023-03-05T03:15:09.945Z,94337.59
2023-03-05T03:17:37.247Z,94335.72
2023-03-05T03:20:09.083Z,94329.34
2023-03-05T03:22:35.589Z,94328.22
2023-03-05T03:25:03.222Z,94327.69
2023-03-05T03:27:29.773Z,94329.13
2023-03-05T03:29:56.331Z,94324.88
2023-03-05T03:32:22.916Z,94322.97
2023-03-05T03:34:49.663Z,94321.53
2023-03-05T03:37:16.612Z,94318.50
2023-03-05T03:39:43.149Z,94323.25
2023-03-05T03:42:09.653Z,94317.91
2023-03-05T03:44:36.190Z,94307.69
2023-03-05T03:47:02.940Z,94315.16
2023-03-05T03:49:29.583Z,94307.56
2023-03-05T03:51:56.119Z,94307.00
2023-03-05T03:54:22.985Z,94310.41
2023-03-05T03:56:49.750Z,94310.69
2023-03-05T03:59:16.491Z,94310.56
2023-03-05T04:01:43.304Z,94302.81
2023-03-05T04:04:12.460Z,94301.41
2023-03-05T04:06:39.450Z,94304.31
2023-03-05T04:09:08.091Z,94307.84
2023-03-05T04:11:35.601Z,94298.53
2023-03-05T04:14:02.682Z,94294.72
2023-03-05T04:16:29.458Z,94296.22
2023-03-05T04:18:56.040Z,94293.00
2023-03-05T04:21:22.636Z,94295.56
2023-03-05T04:23:49.181Z,94288.03
2023-03-05T04:26:15.720Z,94296.75
2023-03-05T04:28:42.275Z,94292.28
2023-03-05T04:31:08.952Z,94287.56
2023-03-05T04:33:35.515Z,94283.63
2023-03-05T04:36:02.116Z,94277.00
2023-03-05T04:38:28.708Z,94279.72
2023-03-05T04:40:55.268Z,94274.59
2023-03-05T04:43:22.248Z,94279.66
2023-03-05T04:45:48.746Z,94275.16
2023-03-05T04:48:15.459Z,94270.31
2023-03-05T04:50:42.004Z,94263.38
2023-03-05T04:53:08.602Z,94264.81
2023-03-05T04:55:35.113Z,94266.63
2023-03-05T04:58:01.682Z,94260.34
2023-03-05T05:00:28.193Z,94257.31
2023-03-05T05:02:55.025Z,94262.16
2023-03-05T05:05:26.181Z,94257.34
2023-03-05T05:07:57.395Z,94258.88
2023-03-05T05:10:25.906Z,94253.50
2023-03-05T05:12:52.515Z,94258.03
2023-03-05T05:15:19.185Z,94248.34
2023-03-05T05:17:47.996Z,94250.72
2023-03-05T05:20:16.454Z,94247.69
2023-03-05T05:22:43.469Z,94248.81
2023-03-05T05:25:10.961Z,94252.28
2023-03-05T05:27:38.974Z,94246.72
2023-03-05T05:30:06.799Z,94247.13
2023-03-05T05:32:33.585Z,94244.53
2023-03-05T05:35:00.464Z,94243.22
2023-03-05T05:37:27.653Z,94247.38
2023-03-05T05:39:54.250Z,94246.13
2023-03-05T05:42:23.036Z,94246.91
2023-03-05T05:44:49.921Z,94247.81
2023-03-05T05:47:17.595Z,94248.47
2023-03-05T05:49:44.141Z,94245.19
2023-03-05T05:52:10.665Z,94238.34
2023-03-05T05:54:37.348Z,94235.78
2023-03-05T05:57:03.985Z,94235.25
2023-03-05T05:59:30.558Z,94243.44
2023-03-05T06:01:57.381Z,94240.97
2023-03-05T06:04:23.946Z,94238.41
2023-03-05T06:06:50.949Z,94238.75
2023-03-05T06:09:17.854Z,94239.75
2023-03-05T06:11:46.574Z,94239.97
2023-03-05T06:14:13.690Z,94244.13
2023-03-05T06:16:40.792Z,94252.75
2023-03-05T06:19:11.394Z,94248.50
2023-03-05T06:21:38.105Z,94247.38
2023-03-05T06:24:05.255Z,94254.78
2023-03-05T06:26:33.834Z,94253.34
2023-03-05T06:29:00.515Z,94244.69
2023-03-05T06:31:28.903Z,94240.88
2023-03-05T06:33:57.790Z,94243.22
2023-03-05T06:36:25.512Z,94245.84
2023-03-05T06:38:53.563Z,94236.41
2023-03-05T06:41:29.012Z,94240.88
2023-03-05T06:43:56.395Z,94241.56
2023-03-05T06:46:31.468Z,94239.75
2023-03-05T06:49:00.687Z,94242.78
2023-03-05T06:51:33.106Z,94236.19
2023-03-05T06:54:05.408Z,94233.59
2023-03-05T06:56:31.909Z,94228.56
2023-03-05T06:58:59.216Z,94234.59
2023-03-05T07:01:25.900Z,94224.63
2023-03-05T07:03:54.213Z,94223.81
2023-03-05T07:06:21.814Z,94226.19
2023-03-05T07:08:49.118Z,94221.59
2023-03-05T07:11:18.367Z,94231.91
2023-03-05T07:13:47.716Z,94228.66
2023-03-05T07:16:17.107Z,94221.47
2023-03-05T07:18:44.118Z,94225.06
2023-03-05T07:21:16.142Z,94223.25
2023-03-05T07:23:42.842Z,94216.06
2023-03-05T07:26:11.175Z,94219.00
2023-03-05T07:28:37.763Z,94211.78
2023-03-05T07:31:11.870Z,94217.38
2023-03-05T07:33:38.509Z,94209.75
2023-03-05T07:36:08.350Z,94215.34
2023-03-05T07:38:35.086Z,94216.59
2023-03-05T07:41:07.248Z,94213.34
2023-03-05T07:43:33.777Z,94221.56
2023-03-05T07:46:03.439Z,94217.72
2023-03-05T07:48:30.029Z,94217.84
2023-03-05T07:51:09.950Z,94218.59
2023-03-05T07:53:36.753Z,94216.69
2023-03-05T07:56:03.443Z,94213.41
2023-03-05T07:58:30.018Z,94216.53
2023-03-05T08:00:56.528Z,94214.38
2023-03-05T08:03:23.098Z,94203.78
2023-03-05T08:05:49.672Z,94200.81
2023-03-05T08:08:16.528Z,94198.69
2023-03-05T08:10:43.049Z,94198.78
2023-03-05T08:13:09.660Z,94200.25
2023-03-05T08:15:37.678Z,94203.84
2023-03-05T08:18:04.578Z,94203.22
2023-03-05T08:20:31.267Z,94199.56
2023-03-05T08:22:57.776Z,94199.41
2023-03-05T08:25:24.372Z,94192.53
2023-03-05T08:27:50.918Z,94195.09
2023-03-05T08:30:20.248Z,94193.66
2023-03-05T08:32:49.037Z,94193.94
2023-03-05T08:35:15.602Z,94196.66
2023-03-05T08:37:42.151Z,94185.84
2023-03-05T08:40:10.204Z,94193.44
2023-03-05T08:42:36.710Z,94181.97
2023-03-05T08:45:03.329Z,94184.13
2023-03-05T08:47:30.023Z,94185.78
2023-03-05T08:49:57.655Z,94186.69
2023-03-05T08:52:24.845Z,94179.53
2023-03-05T08:54:51.502Z,94185.88
2023-03-05T08:57:18.200Z,94182.59
2023-03-05T08:59:44.742Z,94173.09
2023-03-05T09:02:13.320Z,94179.44
2023-03-05T09:04:40.475Z,94176.47
2023-03-05T09:07:07.053Z,94184.75
2023-03-05T09:09:34.054Z,94177.59
2023-03-05T09:12:01.702Z,94175.41
2023-03-05T09:14:28.784Z,94171.38
2023-03-05T09:16:56.824Z,94169.28
2023-03-05T09:19:24.303Z,94169.78
2023-03-05T09:21:51.314Z,94167.09
2023-03-05T09:24:17.888Z,94164.16
2023-03-05T09:26:44.409Z,94164.75
2023-03-05T09:29:11.137Z,94167.19
2023-03-05T09:31:38.497Z,94165.00
2023-03-05T09:34:05.749Z,94166.44
2023-03-05T09:36:32.821Z,94151.00
2023-03-05T09:38:59.415Z,94163.56
2023-03-05T09:41:40.762Z,94164.69
2023-03-05T09:44:22.262Z,94157.84
2023-03-05T09:47:36.575Z,94156.00
2023-03-05T09:50:31.798Z,94156.03
2023-03-05T09:53:22.926Z,94150.25
2023-03-05T09:55:58.741Z,94156.31
2023-03-05T09:58:35.412Z,94146.88
2023-03-05T10:01:06.390Z,94142.53
2023-03-05T10:03:45.711Z,94146.03
2023-03-05T10:06:23.192Z,94147.09
2023-03-05T10:08:55.266Z,94142.19
2023-03-05T10:11:53.748Z,94136.06
2023-03-05T10:14:33.208Z,94141.06
2023-03-05T10:17:21.548Z,94130.78
2023-03-05T10:19:56.962Z,94125.66
2023-03-05T10:22:28.882Z,94129.56
2023-03-05T10:25:23.646Z,94125.59
2023-03-05T10:27:56.873Z,94113.00
2023-03-05T10:30:40.534Z,94115.31
2023-03-05T10:33:38.256Z,94110.97
2023-03-05T10:36:17.029Z,94113.53
2023-03-05T10:39:18.322Z,94115.59
2023-03-05T10:41:56.463Z,94114.75
2023-03-05T10:44:37.533Z,94105.31
2023-03-05T10:47:21.578Z,94107.75
2023-03-05T10:49:56.723Z,94094.59
2023-03-05T10:52:31.047Z,94097.63
2023-03-05T10:54:57.897Z,94087.66
2023-03-05T10:57:27.713Z,94083.19
2023-03-05T11:00:01.097Z,94088.41
2023-03-05T11:02:31.609Z,94093.22
2023-03-05T11:04:58.611Z,94090.63
2023-03-05T11:07:25.238Z,94085.09
2023-03-05T11:10:01.968Z,94083.63
2023-03-05T11:12:36.577Z,94077.28
2023-03-05T11:15:09.389Z,94075.91
2023-03-05T11:17:44.771Z,94062.91
2023-03-05T11:20:27.613Z,94061.38
2023-03-05T11:23:06.615Z,94059.94
2023-03-05T11:25:35.029Z,94062.75
2023-03-05T11:28:03.079Z,94058.06
2023-03-05T11:30:35.458Z,94051.94
2023-03-05T11:33:22.618Z,94048.28
2023-03-05T11:36:09.473Z,94046.09
2023-03-05T11:38:50.033Z,94049.41
2023-03-05T11:41:20.583Z,94038.28
2023-03-05T11:43:49.528Z,94049.31
2023-03-05T11:46:18.980Z,94027.66
2023-03-05T11:48:46.924Z,94031.06
2023-03-05T11:51:20.664Z,94025.28
2023-03-05T11:53:52.268Z,94023.00
2023-03-05T11:56:24.444Z,94027.53
2023-03-05T11:59:12.899Z,94025.56
2023-03-05T12:01:50.231Z,94009.00
2023-03-05T12:04:18.495Z,94014.31
2023-03-05T12:06:55.778Z,94009.63
2023-03-05T12:09:44.340Z,94012.84
2023-03-05T12:13:01.788Z,94005.53
2023-03-05T12:15:37.073Z,94000.50
2023-03-05T12:18:09.815Z,94001.66
2023-03-05T12:21:03.951Z,93996.19
2023-03-05T12:23:45.461Z,93987.22
2023-03-05T12:26:12.182Z,93990.22
2023-03-05T12:28:42.060Z,93988.19
2023-03-05T12:31:08.830Z,93979.00
2023-03-05T12:33:39.630Z,93975.22
2023-03-05T12:36:21.645Z,93974.16
2023-03-05T12:38:56.203Z,93977.97
2023-03-05T12:41:22.865Z,93969.16
2023-03-05T12:44:05.076Z,93965.31
2023-03-05T12:46:42.888Z,93967.47
2023-03-05T12:49:19.049Z,93958.09
2023-03-05T12:51:48.438Z,93954.13
2023-03-05T12:54:27.298Z,93948.28
2023-03-05T12:56:57.081Z,93949.75
2023-03-05T12:59:30.318Z,93942.50
2023-03-05T13:02:01.244Z,93948.25
2023-03-05T13:04:31.977Z,93943.09
2023-03-05T13:07:06.016Z,93946.00
2023-03-05T13:09:36.502Z,93942.63
2023-03-05T13:12:11.605Z,93936.09
2023-03-05T13:14:48.798Z,93928.13
2023-03-05T13:17:28.813Z,93926.28
2023-03-05T13:19:56.303Z,93929.28
2023-03-05T13:22:24.675Z,93936.09
2023-03-05T13:25:05.348Z,93926.09
2023-03-05T13:27:33.049Z,93926.81
2023-03-05T13:29:59.883Z,93924.84
2023-03-05T13:32:28.881Z,93920.16
2023-03-05T13:34:58.664Z,93916.75
2023-03-05T13:37:34.625Z,93920.31
2023-03-05T13:40:07.916Z,93918.84
2023-03-05T13:42:39.124Z,93914.66
2023-03-05T13:45:21.212Z,93915.44
2023-03-05T13:48:03.040Z,93909.69
2023-03-05T13:50:34.578Z,93905.06
2023-03-05T13:53:37.310Z,93903.00
2023-03-05T13:56:07.271Z,93901.00
2023-03-05T13:58:48.183Z,93893.47
2023-03-05T14:01:15.882Z,93893.84
2023-03-05T14:03:42.921Z,93896.88
2023-03-05T14:06:18.992Z,93894.22
2023-03-05T14:08:51.662Z,93891.72
2023-03-05T14:11:19.541Z,93887.94
2023-03-05T14:13:48.335Z,93885.66
2023-03-05T14:16:33.235Z,93889.00
2023-03-05T14:19:02.628Z,93879.63
2023-03-05T14:21:50.286Z,93873.94
2023-03-05T14:24:23.565Z,93879.41
2023-03-05T14:26:53.767Z,93872.19
2023-03-05T14:29:24.283Z,93875.56
2023-03-05T14:32:04.161Z,93880.28
2023-03-05T14:34:38.169Z,93868.22
2023-03-05T14:37:16.727Z,93862.56
2023-03-05T14:39:56.603Z,93862.34
2023-03-05T14:42:27.867Z,93873.78
2023-03-05T14:44:55.940Z,93863.03
2023-03-05T14:47:27.076Z,93864.91
2023-03-05T14:49:54.116Z,93858.41
2023-03-05T14:52:23.991Z,93850.22
2023-03-05T14:54:51.980Z,93845.19
2023-03-05T14:57:25.215Z,93843.00
2023-03-05T14:59:52.109Z,93847.31
2023-03-05T15:02:22.495Z,93837.78
2023-03-05T15:04:49.500Z,93837.41
2023-03-05T15:07:31.374Z,93825.31
2023-03-05T15:09:58.430Z,93825.47
2023-03-05T15:12:25.893Z,93819.19
2023-03-05T15:14:54.564Z,93814.25
2023-03-05T15:17:39.570Z,93811.16
2023-03-05T15:20:09.983Z,93807.75
2023-03-05T15:22:37.528Z,93798.53
2023-03-05T15:25:04.883Z,93794.84
2023-03-05T15:27:31.967Z,93795.84
2023-03-05T15:29:59.694Z,93790.38
2023-03-05T15:32:30.981Z,93792.84
2023-03-05T15:34:59.004Z,93788.88
2023-03-05T15:37:26.164Z,93792.44
2023-03-05T15:39:53.503Z,93783.31
2023-03-05T15:42:20.351Z,93789.16
2023-03-05T15:44:47.150Z,93779.78
2023-03-05T15:47:14.132Z,93780.06
2023-03-05T15:49:41.007Z,93779.16
2023-03-05T15:52:07.852Z,93777.13
2023-03-05T15:54:36.497Z,93782.03
2023-03-05T15:57:08.118Z,93779.56
2023-03-05T15:59:34.856Z,93777.66
2023-03-05T16:02:02.244Z,93769.16
2023-03-05T16:04:29.786Z,93765.09
2023-03-05T16:06:59.246Z,93769.75
2023-03-05T16:09:29.302Z,93763.59
2023-03-05T16:11:56.822Z,93764.25
2023-03-05T16:14:27.943Z,93762.13
2023-03-05T16:16:56.389Z,93760.72
2023-03-05T16:19:24.416Z,93758.84
2023-03-05T16:21:51.266Z,93759.09
2023-03-05T16:24:18.027Z,93762.06
2023-03-05T16:26:44.862Z,93757.53
2023-03-05T16:29:11.935Z,93752.13
2023-03-05T16:31:41.524Z,93746.66
2023-03-05T16:34:09.236Z,93755.56
2023-03-05T16:36:35.978Z,93741.72
2023-03-05T16:39:04.786Z,93745.69
2023-03-05T16:41:32.347Z,93746.78
2023-03-05T16:43:59.544Z,93737.88
2023-03-05T16:46:29.255Z,93737.72
2023-03-05T16:48:57.814Z,93736.09
2023-03-05T16:51:24.998Z,93738.25
2023-03-05T16:53:51.818Z,93740.38
2023-03-05T16:56:19.399Z,93739.69
2023-03-05T16:58:46.539Z,93734.66
2023-03-05T17:01:16.265Z,93735.19
2023-03-05T17:03:44.079Z,93733.88
2023-03-05T17:06:17.515Z,93729.91
2023-03-05T17:08:45.037Z,93732.88
2023-03-05T17:11:12.670Z,93729.59
2023-03-05T17:13:40.073Z,93730.38
2023-03-05T17:16:08.400Z,93725.34
2023-03-05T17:18:35.596Z,93733.81
2023-03-05T17:21:04.224Z,93721.94
2023-03-05T17:23:31.350Z,93726.09
2023-03-05T17:25:58.279Z,93726.88
2023-03-05T17:28:25.916Z,93736.13
2023-03-05T17:30:52.698Z,93731.44
2023-03-05T17:33:19.465Z,93732.00
2023-03-05T17:35:47.321Z,93726.66
2023-03-05T17:38:14.749Z,93733.22
2023-03-05T17:40:41.864Z,93721.75
2023-03-05T17:43:08.770Z,93716.72
2023-03-05T17:45:35.751Z,93719.84
2023-03-05T17:48:04.200Z,93723.81
2023-03-05T17:50:31.261Z,93736.56
2023-03-05T17:52:57.965Z,93732.94
2023-03-05T17:55:25.737Z,93728.41
2023-03-05T17:57:55.037Z,93722.94
2023-03-05T18:00:26.694Z,93734.88
2023-03-05T18:02:54.233Z,93724.34
2023-03-05T18:05:24.337Z,93724.56
2023-03-05T18:07:52.253Z,93726.41
2023-03-05T18:10:23.922Z,93722.06
2023-03-05T18:12:51.405Z,93720.31
2023-03-05T18:15:20.247Z,93723.00
2023-03-05T18:17:51.049Z,93722.22
2023-03-05T18:20:31.633Z,93716.81
2023-03-05T18:23:00.271Z,93718.09
2023-03-05T18:25:34.473Z,93715.69
2023-03-05T18:28:06.382Z,93725.31
2023-03-05T18:30:34.931Z,93719.94
2023-03-05T18:33:01.757Z,93721.22
2023-03-05T18:35:34.914Z,93711.34
2023-03-05T18:38:01.779Z,93710.50
2023-03-05T18:40:32.547Z,93719.38
2023-03-05T18:43:03.472Z,93710.44
2023-03-05T18:45:31.142Z,93712.19
2023-03-05T18:48:01.135Z,93706.34
2023-03-05T18:50:29.116Z,93706.13
2023-03-05T18:52:55.939Z,93715.56
2023-03-05T18:55:29.103Z,93709.91
2023-03-05T18:57:56.449Z,93708.16
2023-03-05T19:00:26.866Z,93703.09
2023-03-05T19:02:54.810Z,93702.22
2023-03-05T19:05:22.197Z,93705.16
2023-03-05T19:07:49.987Z,93706.44
2023-03-05T19:10:17.795Z,93697.50
2023-03-05T19:13:05.986Z,93702.88
2023-03-05T19:15:32.699Z,93694.03
2023-03-05T19:18:00.205Z,93701.69
2023-03-05T19:20:27.633Z,93705.72
2023-03-05T19:22:56.159Z,93697.56
2023-03-05T19:25:23.107Z,93685.28
2023-03-05T19:27:50.043Z,93687.25
2023-03-05T19:30:20.170Z,93686.41
2023-03-05T19:32:47.280Z,93686.03
2023-03-05T19:35:17.739Z,93682.84
2023-03-05T19:37:46.068Z,93675.03
2023-03-05T19:40:15.818Z,93679.66
2023-03-05T19:42:43.128Z,93672.81
2023-03-05T19:45:10.419Z,93677.28
2023-03-05T19:47:37.164Z,93674.25
2023-03-05T19:50:05.384Z,93674.59
2023-03-05T19:52:32.132Z,93669.06
2023-03-05T19:55:00.064Z,93664.44
2023-03-05T19:57:26.806Z,93669.69
2023-03-05T19:59:53.788Z,93664.91
2023-03-05T20:02:22.000Z,93662.38
2023-03-05T20:04:49.863Z,93659.75
2023-03-05T20:07:17.149Z,93651.81
2023-03-05T20:09:44.059Z,93656.00
2023-03-05T20:12:10.937Z,93653.84
2023-03-05T20:14:37.845Z,93654.94
2023-03-05T20:17:04.622Z,93653.84
2023-03-05T20:19:31.354Z,93656.91
2023-03-05T20:21:58.102Z,93652.03
2023-03-05T20:24:24.851Z,93658.63
2023-03-05T20:26:51.517Z,93652.03
2023-03-05T20:29:18.854Z,93651.72
2023-03-05T20:31:46.770Z,93652.53
2023-03-05T20:34:17.017Z,93650.88
2023-03-05T20:36:44.261Z,93642.16
2023-03-05T20:39:11.184Z,93646.03
2023-03-05T20:41:40.146Z,93647.00
2023-03-05T20:44:08.205Z,93649.91
2023-03-05T20:46:39.535Z,93646.25
2023-03-05T20:49:06.329Z,93643.56
2023-03-05T20:51:35.996Z,93650.38
2023-03-05T20:54:06.307Z,93649.09
2023-03-05T20:56:35.017Z,93650.44
2023-03-05T20:59:04.786Z,93644.22
2023-03-05T21:01:33.105Z,93631.56
2023-03-05T21:04:01.012Z,93638.09
2023-03-05T21:06:29.132Z,93639.38
2023-03-05T21:08:56.221Z,93625.88
2023-03-05T21:11:23.074Z,93627.22
2023-03-05T21:13:49.798Z,93627.00
2023-03-05T21:16:20.330Z,93625.53
2023-03-05T21:18:46.990Z,93623.31
2023-03-05T21:21:13.879Z,93618.78
2023-03-05T21:23:40.621Z,93624.69
2023-03-05T21:26:07.385Z,93622.00
2023-03-05T21:28:34.492Z,93615.63
2023-03-05T21:31:08.061Z,93609.47
2023-03-05T21:33:35.307Z,93612.31
2023-03-05T21:36:02.080Z,93606.94
2023-03-05T21:38:30.819Z,93608.84
2023-03-05T21:40:58.953Z,93600.34
2023-03-05T21:43:27.074Z,93604.00
2023-03-05T21:45:54.908Z,93596.91
2023-03-05T21:48:22.641Z,93589.94
2023-03-05T21:50:50.362Z,93591.44
2023-03-05T21:53:18.478Z,93582.47
2023-03-05T21:56:14.437Z,93586.31
2023-03-05T21:58:41.469Z,93580.56
2023-03-05T22:01:11.070Z,93582.84
2023-03-05T22:03:38.052Z,93571.69
2023-03-05T22:06:09.475Z,93569.34
2023-03-05T22:08:36.369Z,93572.84
2023-03-05T22:11:08.629Z,93564.44
2023-03-05T22:13:36.783Z,93567.47
2023-03-05T22:16:03.664Z,93564.44
2023-03-05T22:18:32.389Z,93564.94
2023-03-05T22:20:59.836Z,93560.84
2023-03-05T22:23:29.951Z,93561.72
2023-03-05T22:25:57.921Z,93556.59
2023-03-05T22:28:24.877Z,93558.22
2023-03-05T22:30:51.708Z,93555.72
2023-03-05T22:33:18.536Z,93551.13
2023-03-05T22:35:45.379Z,93555.09
2023-03-05T22:38:12.878Z,93549.06
2023-03-05T22:40:45.502Z,93543.69
2023-03-05T22:43:12.992Z,93535.44
2023-03-05T22:45:40.420Z,93538.06
2023-03-05T22:48:07.701Z,93534.03
2023-03-05T22:50:34.440Z,93535.34
2023-03-05T22:53:01.288Z,93527.63
2023-03-05T22:55:28.027Z,93524.00
2023-03-05T22:57:54.738Z,93512.97
2023-03-05T23:00:23.718Z,93516.13
2023-03-05T23:02:51.598Z,93517.03
2023-03-05T23:05:19.207Z,93512.09
2023-03-05T23:07:46.679Z,93514.16
2023-03-05T23:10:27.011Z,93503.88
2023-03-05T23:12:55.935Z,93506.91
2023-03-05T23:15:27.658Z,93510.38
2023-03-05T23:17:54.555Z,93504.44
2023-03-05T23:20:26.095Z,93503.47
2023-03-05T23:22:55.898Z,93491.13
2023-03-05T23:25:29.079Z,93487.75
2023-03-05T23:27:58.025Z,93489.59
2023-03-05T23:30:26.835Z,93479.41
2023-03-05T23:33:08.475Z,93486.00
2023-03-05T23:35:38.017Z,93483.16
2023-03-05T23:38:08.844Z,93486.19
2023-03-05T23:40:39.965Z,93476.84
2023-03-05T23:43:07.034Z,93477.28
2023-03-05T23:45:34.169Z,93474.72
2023-03-05T23:48:01.008Z,93467.34
2023-03-05T23:50:33.955Z,93470.03
2023-03-05T23:53:02.304Z,93468.13
2023-03-05T23:55:35.443Z,93462.03
2023-03-05T23:58:02.792Z,93465.50
